sensor_id;sensor_type;location;lat;lon;timestamp;P1;durP1;ratioP1;P2;durP2;ratioP2
38399;SDS011;24180;42.676;23.320;2023-04-30T00:00:03;19.27;;;15.57;;
38399;SDS011;24180;42.676;23.320;2023-04-30T00:02:32;16.37;;;13.87;;
38399;SDS011;24180;42.676;23.320;2023-04-30T00:04:58;17.57;;;13.80;;
38399;SDS011;24180;42.676;23.320;2023-04-30T00:07:23;18.40;;;13.63;;
38399;SDS011;24180;42.676;23.320;2023-04-30T00:09:48;16.43;;;13.13;;
38399;SDS011;24180;42.676;23.320;2023-04-30T00:12:15;17.77;;;13.93;;
38399;SDS011;24180;42.676;23.320;2023-04-30T00:14:40;17.10;;;13.27;;
38399;SDS011;24180;42.676;23.320;2023-04-30T00:17:06;19.27;;;13.23;;
38399;SDS011;24180;42.676;23.320;2023-04-30T00:19:31;16.97;;;14.10;;
38399;SDS011;24180;42.676;23.320;2023-04-30T00:21:56;19.57;;;14.07;;
38399;SDS011;24180;42.676;23.320;2023-04-30T00:24:22;16.20;;;13.20;;
38399;SDS011;24180;42.676;23.320;2023-04-30T00:26:47;20.97;;;13.87;;
38399;SDS011;24180;42.676;23.320;2023-04-30T00:29:13;19.20;;;13.17;;
38399;SDS011;24180;42.676;23.320;2023-04-30T00:31:38;16.00;;;13.77;;
38399;SDS011;24180;42.676;23.320;2023-04-30T00:34:03;16.37;;;12.93;;
38399;SDS011;24180;42.676;23.320;2023-04-30T00:36:29;15.83;;;13.37;;
38399;SDS011;24180;42.676;23.320;2023-04-30T00:38:55;16.07;;;13.30;;
38399;SDS011;24180;42.676;23.320;2023-04-30T00:41:21;15.93;;;13.40;;
38399;SDS011;24180;42.676;23.320;2023-04-30T00:43:47;18.30;;;14.03;;
38399;SDS011;24180;42.676;23.320;2023-04-30T00:46:12;17.90;;;13.13;;
38399;SDS011;24180;42.676;23.320;2023-04-30T00:48:38;16.00;;;13.40;;
38399;SDS011;24180;42.676;23.320;2023-04-30T00:51:03;18.07;;;14.03;;
38399;SDS011;24180;42.676;23.320;2023-04-30T00:53:30;16.23;;;13.87;;
38399;SDS011;24180;42.676;23.320;2023-04-30T00:55:56;20.37;;;13.23;;
38399;SDS011;24180;42.676;23.320;2023-04-30T00:58:21;15.40;;;13.13;;
38399;SDS011;24180;42.676;23.320;2023-04-30T01:00:47;17.77;;;13.23;;
38399;SDS011;24180;42.676;23.320;2023-04-30T01:03:13;14.90;;;12.17;;
38399;SDS011;24180;42.676;23.320;2023-04-30T01:05:40;16.67;;;13.27;;
38399;SDS011;24180;42.676;23.320;2023-04-30T01:08:06;20.07;;;12.93;;
38399;SDS011;24180;42.676;23.320;2023-04-30T01:10:35;16.77;;;12.67;;
38399;SDS011;24180;42.676;23.320;2023-04-30T01:13:14;17.13;;;13.07;;
38399;SDS011;24180;42.676;23.320;2023-04-30T01:15:45;18.53;;;12.67;;
38399;SDS011;24180;42.676;23.320;2023-04-30T01:18:26;15.53;;;13.30;;
38399;SDS011;24180;42.676;23.320;2023-04-30T01:20:57;17.03;;;12.90;;
38399;SDS011;24180;42.676;23.320;2023-04-30T01:26:28;15.43;;;12.37;;
38399;SDS011;24180;42.676;23.320;2023-04-30T01:29:11;15.00;;;12.93;;
38399;SDS011;24180;42.676;23.320;2023-04-30T01:31:38;16.17;;;13.57;;
38399;SDS011;24180;42.676;23.320;2023-04-30T01:34:08;14.83;;;13.20;;
38399;SDS011;24180;42.676;23.320;2023-04-30T01:36:56;13.97;;;12.30;;
38399;SDS011;24180;42.676;23.320;2023-04-30T01:42:46;17.03;;;12.60;;
38399;SDS011;24180;42.676;23.320;2023-04-30T01:48:15;15.37;;;11.90;;
38399;SDS011;24180;42.676;23.320;2023-04-30T01:53:32;15.57;;;12.40;;
38399;SDS011;24180;42.676;23.320;2023-04-30T01:56:07;15.50;;;12.13;;
38399;SDS011;24180;42.676;23.320;2023-04-30T01:58:36;15.70;;;12.53;;
38399;SDS011;24180;42.676;23.320;2023-04-30T02:01:04;15.20;;;12.37;;
38399;SDS011;24180;42.676;23.320;2023-04-30T02:03:30;16.10;;;12.17;;
38399;SDS011;24180;42.676;23.320;2023-04-30T02:05:56;15.93;;;12.30;;
38399;SDS011;24180;42.676;23.320;2023-04-30T02:08:23;13.50;;;11.90;;
38399;SDS011;24180;42.676;23.320;2023-04-30T02:10:48;15.20;;;11.80;;
38399;SDS011;24180;42.676;23.320;2023-04-30T02:13:14;17.97;;;12.13;;
38399;SDS011;24180;42.676;23.320;2023-04-30T02:15:39;15.47;;;11.40;;
38399;SDS011;24180;42.676;23.320;2023-04-30T02:18:05;16.87;;;12.30;;
38399;SDS011;24180;42.676;23.320;2023-04-30T02:20:30;15.27;;;12.07;;
38399;SDS011;24180;42.676;23.320;2023-04-30T02:22:55;16.17;;;11.80;;
38399;SDS011;24180;42.676;23.320;2023-04-30T02:25:21;14.23;;;12.17;;
38399;SDS011;24180;42.676;23.320;2023-04-30T02:27:46;13.33;;;11.80;;
38399;SDS011;24180;42.676;23.320;2023-04-30T02:30:14;15.77;;;12.67;;
38399;SDS011;24180;42.676;23.320;2023-04-30T02:32:39;16.13;;;11.77;;
38399;SDS011;24180;42.676;23.320;2023-04-30T02:35:05;17.37;;;11.97;;
38399;SDS011;24180;42.676;23.320;2023-04-30T02:37:30;17.23;;;11.23;;
38399;SDS011;24180;42.676;23.320;2023-04-30T02:39:56;15.57;;;12.57;;
38399;SDS011;24180;42.676;23.320;2023-04-30T02:42:21;14.87;;;11.73;;
38399;SDS011;24180;42.676;23.320;2023-04-30T02:44:47;14.90;;;11.10;;
38399;SDS011;24180;42.676;23.320;2023-04-30T02:47:12;18.63;;;12.27;;
38399;SDS011;24180;42.676;23.320;2023-04-30T02:49:37;14.80;;;11.30;;
38399;SDS011;24180;42.676;23.320;2023-04-30T02:52:04;17.60;;;11.37;;
38399;SDS011;24180;42.676;23.320;2023-04-30T02:54:30;16.97;;;12.07;;
38399;SDS011;24180;42.676;23.320;2023-04-30T02:56:55;18.27;;;12.50;;
38399;SDS011;24180;42.676;23.320;2023-04-30T02:59:20;16.20;;;11.83;;
38399;SDS011;24180;42.676;23.320;2023-04-30T03:01:46;15.10;;;12.03;;
38399;SDS011;24180;42.676;23.320;2023-04-30T03:04:11;15.53;;;12.13;;
38399;SDS011;24180;42.676;23.320;2023-04-30T03:06:36;15.10;;;13.23;;
38399;SDS011;24180;42.676;23.320;2023-04-30T03:09:02;14.33;;;11.77;;
38399;SDS011;24180;42.676;23.320;2023-04-30T03:11:27;13.40;;;11.50;;
38399;SDS011;24180;42.676;23.320;2023-04-30T03:13:53;14.60;;;11.37;;
38399;SDS011;24180;42.676;23.320;2023-04-30T03:16:18;14.70;;;11.43;;
38399;SDS011;24180;42.676;23.320;2023-04-30T03:18:45;14.70;;;11.60;;
38399;SDS011;24180;42.676;23.320;2023-04-30T03:21:11;14.13;;;11.30;;
38399;SDS011;24180;42.676;23.320;2023-04-30T03:23:36;14.90;;;11.37;;
38399;SDS011;24180;42.676;23.320;2023-04-30T03:26:02;16.70;;;11.83;;
38399;SDS011;24180;42.676;23.320;2023-04-30T03:28:27;16.23;;;11.60;;
38399;SDS011;24180;42.676;23.320;2023-04-30T03:30:53;14.33;;;11.27;;
38399;SDS011;24180;42.676;23.320;2023-04-30T03:33:18;12.23;;;10.93;;
38399;SDS011;24180;42.676;23.320;2023-04-30T03:35:44;13.90;;;11.33;;
38399;SDS011;24180;42.676;23.320;2023-04-30T03:38:09;14.50;;;11.60;;
38399;SDS011;24180;42.676;23.320;2023-04-30T03:40:35;15.30;;;11.70;;
38399;SDS011;24180;42.676;23.320;2023-04-30T03:43:00;14.60;;;12.13;;
38399;SDS011;24180;42.676;23.320;2023-04-30T03:45:26;13.87;;;11.60;;
38399;SDS011;24180;42.676;23.320;2023-04-30T03:47:51;13.27;;;11.00;;
38399;SDS011;24180;42.676;23.320;2023-04-30T03:50:17;13.97;;;10.93;;
38399;SDS011;24180;42.676;23.320;2023-04-30T03:52:43;13.87;;;10.70;;
38399;SDS011;24180;42.676;23.320;2023-04-30T03:55:09;14.10;;;10.43;;
38399;SDS011;24180;42.676;23.320;2023-04-30T03:57:35;13.50;;;10.30;;
38399;SDS011;24180;42.676;23.320;2023-04-30T04:00:02;13.80;;;10.47;;
38399;SDS011;24180;42.676;23.320;2023-04-30T04:02:31;13.00;;;10.60;;
38399;SDS011;24180;42.676;23.320;2023-04-30T04:04:57;11.73;;;10.10;;
38399;SDS011;24180;42.676;23.320;2023-04-30T04:07:23;15.03;;;10.60;;
38399;SDS011;24180;42.676;23.320;2023-04-30T04:09:48;14.97;;;10.43;;
38399;SDS011;24180;42.676;23.320;2023-04-30T04:12:14;11.27;;;9.67;;
38399;SDS011;24180;42.676;23.320;2023-04-30T04:14:39;12.63;;;10.13;;
38399;SDS011;24180;42.676;23.320;2023-04-30T04:17:05;11.07;;;9.97;;
38399;SDS011;24180;42.676;23.320;2023-04-30T04:19:30;11.93;;;10.17;;
38399;SDS011;24180;42.676;23.320;2023-04-30T04:21:56;10.70;;;9.57;;
38399;SDS011;24180;42.676;23.320;2023-04-30T04:24:23;12.20;;;9.83;;
38399;SDS011;24180;42.676;23.320;2023-04-30T04:26:49;12.17;;;9.50;;
38399;SDS011;24180;42.676;23.320;2023-04-30T04:29:15;11.30;;;9.20;;
38399;SDS011;24180;42.676;23.320;2023-04-30T04:31:40;12.80;;;9.87;;
38399;SDS011;24180;42.676;23.320;2023-04-30T04:34:06;12.50;;;9.77;;
38399;SDS011;24180;42.676;23.320;2023-04-30T04:36:32;9.47;;;8.47;;
38399;SDS011;24180;42.676;23.320;2023-04-30T04:38:58;8.93;;;8.00;;
38399;SDS011;24180;42.676;23.320;2023-04-30T04:41:30;9.60;;;8.50;;
38399;SDS011;24180;42.676;23.320;2023-04-30T04:43:57;8.33;;;7.53;;
38399;SDS011;24180;42.676;23.320;2023-04-30T04:46:23;12.37;;;7.97;;
38399;SDS011;24180;42.676;23.320;2023-04-30T04:48:50;11.53;;;8.13;;
38399;SDS011;24180;42.676;23.320;2023-04-30T04:51:16;8.43;;;7.53;;
38399;SDS011;24180;42.676;23.320;2023-04-30T04:53:41;9.53;;;8.40;;
38399;SDS011;24180;42.676;23.320;2023-04-30T04:56:07;10.60;;;8.37;;
38399;SDS011;24180;42.676;23.320;2023-04-30T04:58:33;8.87;;;7.63;;
38399;SDS011;24180;42.676;23.320;2023-04-30T05:00:58;9.57;;;7.67;;
38399;SDS011;24180;42.676;23.320;2023-04-30T05:03:24;9.20;;;8.27;;
38399;SDS011;24180;42.676;23.320;2023-04-30T05:05:51;8.87;;;8.03;;
38399;SDS011;24180;42.676;23.320;2023-04-30T05:08:17;11.70;;;7.90;;
38399;SDS011;24180;42.676;23.320;2023-04-30T05:10:42;12.00;;;8.50;;
38399;SDS011;24180;42.676;23.320;2023-04-30T05:13:08;10.30;;;8.80;;
38399;SDS011;24180;42.676;23.320;2023-04-30T05:15:33;9.47;;;8.47;;
38399;SDS011;24180;42.676;23.320;2023-04-30T05:17:58;9.37;;;8.37;;
38399;SDS011;24180;42.676;23.320;2023-04-30T05:20:24;9.90;;;8.90;;
38399;SDS011;24180;42.676;23.320;2023-04-30T05:22:49;9.80;;;8.80;;
38399;SDS011;24180;42.676;23.320;2023-04-30T05:25:15;14.27;;;9.67;;
38399;SDS011;24180;42.676;23.320;2023-04-30T05:27:40;11.40;;;9.53;;
38399;SDS011;24180;42.676;23.320;2023-04-30T05:30:06;11.57;;;9.07;;
38399;SDS011;24180;42.676;23.320;2023-04-30T05:32:33;11.73;;;9.63;;
38399;SDS011;24180;42.676;23.320;2023-04-30T05:34:59;12.77;;;9.80;;
38399;SDS011;24180;42.676;23.320;2023-04-30T05:37:24;10.33;;;9.33;;
38399;SDS011;24180;42.676;23.320;2023-04-30T05:39:50;11.60;;;9.77;;
38399;SDS011;24180;42.676;23.320;2023-04-30T05:42:17;11.13;;;9.93;;
38399;SDS011;24180;42.676;23.320;2023-04-30T05:44:43;12.83;;;9.77;;
38399;SDS011;24180;42.676;23.320;2023-04-30T05:47:08;12.27;;;10.63;;
38399;SDS011;24180;42.676;23.320;2023-04-30T05:49:34;11.67;;;10.47;;
38399;SDS011;24180;42.676;23.320;2023-04-30T05:51:59;12.70;;;9.87;;
38399;SDS011;24180;42.676;23.320;2023-04-30T05:54:27;15.97;;;10.23;;
38399;SDS011;24180;42.676;23.320;2023-04-30T05:56:53;12.27;;;10.40;;
38399;SDS011;24180;42.676;23.320;2023-04-30T05:59:18;13.67;;;10.93;;
38399;SDS011;24180;42.676;23.320;2023-04-30T06:01:43;14.70;;;11.40;;
38399;SDS011;24180;42.676;23.320;2023-04-30T06:04:09;11.80;;;10.60;;
38399;SDS011;24180;42.676;23.320;2023-04-30T06:06:35;11.73;;;10.53;;
38399;SDS011;24180;42.676;23.320;2023-04-30T06:09:01;13.63;;;9.80;;
38399;SDS011;24180;42.676;23.320;2023-04-30T06:11:26;12.30;;;10.57;;
38399;SDS011;24180;42.676;23.320;2023-04-30T06:13:51;16.17;;;10.87;;
38399;SDS011;24180;42.676;23.320;2023-04-30T06:16:17;11.73;;;9.43;;
38399;SDS011;24180;42.676;23.320;2023-04-30T06:18:43;14.20;;;10.10;;
38399;SDS011;24180;42.676;23.320;2023-04-30T06:21:08;11.73;;;8.87;;
38399;SDS011;24180;42.676;23.320;2023-04-30T06:23:34;10.80;;;9.70;;
38399;SDS011;24180;42.676;23.320;2023-04-30T06:25:59;10.90;;;9.80;;
38399;SDS011;24180;42.676;23.320;2023-04-30T06:28:25;10.87;;;9.63;;
38399;SDS011;24180;42.676;23.320;2023-04-30T06:30:50;14.90;;;10.23;;
38399;SDS011;24180;42.676;23.320;2023-04-30T06:33:17;13.07;;;10.87;;
38399;SDS011;24180;42.676;23.320;2023-04-30T06:35:43;13.40;;;10.93;;
38399;SDS011;24180;42.676;23.320;2023-04-30T06:38:08;17.23;;;11.07;;
38399;SDS011;24180;42.676;23.320;2023-04-30T06:40:34;13.07;;;11.60;;
38399;SDS011;24180;42.676;23.320;2023-04-30T06:42:59;17.50;;;11.17;;
38399;SDS011;24180;42.676;23.320;2023-04-30T06:45:25;21.20;;;15.87;;
38399;SDS011;24180;42.676;23.320;2023-04-30T06:47:50;15.63;;;11.33;;
38399;SDS011;24180;42.676;23.320;2023-04-30T06:50:16;14.33;;;11.40;;
38399;SDS011;24180;42.676;23.320;2023-04-30T06:52:42;14.07;;;11.37;;
38399;SDS011;24180;42.676;23.320;2023-04-30T06:55:08;13.03;;;11.43;;
38399;SDS011;24180;42.676;23.320;2023-04-30T06:57:33;18.20;;;14.73;;
38399;SDS011;24180;42.676;23.320;2023-04-30T07:00:01;15.77;;;11.60;;
38399;SDS011;24180;42.676;23.320;2023-04-30T07:02:28;14.37;;;11.77;;
38399;SDS011;24180;42.676;23.320;2023-04-30T07:04:53;17.17;;;13.47;;
38399;SDS011;24180;42.676;23.320;2023-04-30T07:07:19;16.27;;;11.77;;
38399;SDS011;24180;42.676;23.320;2023-04-30T07:09:44;15.17;;;11.93;;
38399;SDS011;24180;42.676;23.320;2023-04-30T07:12:10;15.23;;;11.77;;
38399;SDS011;24180;42.676;23.320;2023-04-30T07:14:37;13.57;;;11.37;;
38399;SDS011;24180;42.676;23.320;2023-04-30T07:17:03;14.43;;;12.17;;
38399;SDS011;24180;42.676;23.320;2023-04-30T07:19:28;14.57;;;11.97;;
38399;SDS011;24180;42.676;23.320;2023-04-30T07:21:54;13.73;;;11.60;;
38399;SDS011;24180;42.676;23.320;2023-04-30T07:24:19;15.13;;;11.17;;
38399;SDS011;24180;42.676;23.320;2023-04-30T07:26:45;16.77;;;11.97;;
38399;SDS011;24180;42.676;23.320;2023-04-30T07:29:10;14.23;;;12.17;;
38399;SDS011;24180;42.676;23.320;2023-04-30T07:31:36;16.67;;;12.67;;
38399;SDS011;24180;42.676;23.320;2023-04-30T07:34:01;13.87;;;12.13;;
38399;SDS011;24180;42.676;23.320;2023-04-30T07:36:26;19.20;;;13.00;;
38399;SDS011;24180;42.676;23.320;2023-04-30T07:38:52;15.13;;;12.03;;
38399;SDS011;24180;42.676;23.320;2023-04-30T07:41:17;14.43;;;12.23;;
38399;SDS011;24180;42.676;23.320;2023-04-30T07:43:43;15.63;;;11.97;;
38399;SDS011;24180;42.676;23.320;2023-04-30T07:46:08;12.17;;;10.77;;
38399;SDS011;24180;42.676;23.320;2023-04-30T07:48:34;18.33;;;11.20;;
38399;SDS011;24180;42.676;23.320;2023-04-30T07:50:59;15.00;;;11.37;;
38399;SDS011;24180;42.676;23.320;2023-04-30T07:53:25;12.20;;;10.57;;
38399;SDS011;24180;42.676;23.320;2023-04-30T07:55:50;10.83;;;8.93;;
38399;SDS011;24180;42.676;23.320;2023-04-30T07:58:16;12.97;;;10.03;;
38399;SDS011;24180;42.676;23.320;2023-04-30T08:00:41;13.97;;;10.40;;
38399;SDS011;24180;42.676;23.320;2023-04-30T08:03:07;11.87;;;9.90;;
38399;SDS011;24180;42.676;23.320;2023-04-30T08:05:32;10.57;;;9.43;;
38399;SDS011;24180;42.676;23.320;2023-04-30T08:07:58;13.03;;;10.47;;
38399;SDS011;24180;42.676;23.320;2023-04-30T08:10:23;11.30;;;8.93;;
38399;SDS011;24180;42.676;23.320;2023-04-30T08:12:50;8.67;;;7.40;;
38399;SDS011;24180;42.676;23.320;2023-04-30T08:15:16;7.90;;;6.60;;
38399;SDS011;24180;42.676;23.320;2023-04-30T08:17:45;7.73;;;5.83;;
38399;SDS011;24180;42.676;23.320;2023-04-30T08:20:13;8.27;;;6.53;;
38399;SDS011;24180;42.676;23.320;2023-04-30T08:22:38;8.00;;;6.40;;
38399;SDS011;24180;42.676;23.320;2023-04-30T08:25:04;7.97;;;6.53;;
38399;SDS011;24180;42.676;23.320;2023-04-30T08:27:30;8.37;;;7.00;;
38399;SDS011;24180;42.676;23.320;2023-04-30T08:29:56;8.33;;;6.60;;
38399;SDS011;24180;42.676;23.320;2023-04-30T08:32:21;11.13;;;7.60;;
38399;SDS011;24180;42.676;23.320;2023-04-30T08:34:47;7.97;;;7.17;;
38399;SDS011;24180;42.676;23.320;2023-04-30T08:37:12;10.83;;;7.07;;
38399;SDS011;24180;42.676;23.320;2023-04-30T08:39:37;7.73;;;6.83;;
38399;SDS011;24180;42.676;23.320;2023-04-30T08:42:03;7.47;;;6.60;;
38399;SDS011;24180;42.676;23.320;2023-04-30T08:44:32;8.80;;;6.57;;
38399;SDS011;24180;42.676;23.320;2023-04-30T08:47:00;8.80;;;6.30;;
38399;SDS011;24180;42.676;23.320;2023-04-30T08:49:26;7.57;;;6.10;;
38399;SDS011;24180;42.676;23.320;2023-04-30T08:51:52;6.27;;;5.67;;
38399;SDS011;24180;42.676;23.320;2023-04-30T08:54:18;7.43;;;5.87;;
38399;SDS011;24180;42.676;23.320;2023-04-30T08:56:44;7.40;;;5.53;;
38399;SDS011;24180;42.676;23.320;2023-04-30T08:59:10;6.80;;;6.10;;
38399;SDS011;24180;42.676;23.320;2023-04-30T09:01:36;6.00;;;5.50;;
38399;SDS011;24180;42.676;23.320;2023-04-30T09:04:02;6.17;;;5.57;;
38399;SDS011;24180;42.676;23.320;2023-04-30T09:06:28;7.40;;;5.67;;
38399;SDS011;24180;42.676;23.320;2023-04-30T09:08:53;9.80;;;5.80;;
38399;SDS011;24180;42.676;23.320;2023-04-30T09:13:58;6.87;;;5.93;;
38399;SDS011;24180;42.676;23.320;2023-04-30T09:16:25;6.20;;;5.70;;
38399;SDS011;24180;42.676;23.320;2023-04-30T09:18:54;6.23;;;5.63;;
38399;SDS011;24180;42.676;23.320;2023-04-30T09:21:33;5.93;;;5.40;;
38399;SDS011;24180;42.676;23.320;2023-04-30T09:24:01;6.57;;;6.07;;
38399;SDS011;24180;42.676;23.320;2023-04-30T09:26:31;7.40;;;5.73;;
38399;SDS011;24180;42.676;23.320;2023-04-30T09:29:00;6.43;;;5.80;;
38399;SDS011;24180;42.676;23.320;2023-04-30T09:31:31;7.47;;;6.77;;
38399;SDS011;24180;42.676;23.320;2023-04-30T09:33:57;6.80;;;6.20;;
38399;SDS011;24180;42.676;23.320;2023-04-30T09:36:23;6.67;;;6.00;;
38399;SDS011;24180;42.676;23.320;2023-04-30T09:38:48;5.83;;;5.33;;
38399;SDS011;24180;42.676;23.320;2023-04-30T09:41:27;5.70;;;5.30;;
38399;SDS011;24180;42.676;23.320;2023-04-30T09:43:53;6.57;;;5.90;;
38399;SDS011;24180;42.676;23.320;2023-04-30T09:46:20;5.73;;;5.23;;
38399;SDS011;24180;42.676;23.320;2023-04-30T09:48:48;6.27;;;5.47;;
38399;SDS011;24180;42.676;23.320;2023-04-30T09:51:21;7.50;;;5.27;;
38399;SDS011;24180;42.676;23.320;2023-04-30T09:53:46;7.07;;;5.00;;
38399;SDS011;24180;42.676;23.320;2023-04-30T09:56:12;4.83;;;4.53;;
38399;SDS011;24180;42.676;23.320;2023-04-30T09:58:43;6.07;;;5.10;;
38399;SDS011;24180;42.676;23.320;2023-04-30T10:01:14;5.40;;;5.00;;
38399;SDS011;24180;42.676;23.320;2023-04-30T10:03:41;6.80;;;4.70;;
38399;SDS011;24180;42.676;23.320;2023-04-30T10:06:07;5.33;;;4.83;;
38399;SDS011;24180;42.676;23.320;2023-04-30T10:08:41;5.13;;;4.63;;
38399;SDS011;24180;42.676;23.320;2023-04-30T10:11:08;5.00;;;4.60;;
38399;SDS011;24180;42.676;23.320;2023-04-30T10:19:24;4.95;;;4.65;;
38399;SDS011;24180;42.676;23.320;2023-04-30T10:21:50;5.50;;;5.00;;
38399;SDS011;24180;42.676;23.320;2023-04-30T10:24:17;5.40;;;5.00;;
38399;SDS011;24180;42.676;23.320;2023-04-30T10:26:45;6.77;;;6.27;;
38399;SDS011;24180;42.676;23.320;2023-04-30T10:29:14;6.00;;;5.47;;
38399;SDS011;24180;42.676;23.320;2023-04-30T10:31:42;4.53;;;4.13;;
38399;SDS011;24180;42.676;23.320;2023-04-30T10:34:16;5.60;;;4.93;;
38399;SDS011;24180;42.676;23.320;2023-04-30T10:36:44;6.10;;;5.10;;
38399;SDS011;24180;42.676;23.320;2023-04-30T10:39:17;7.30;;;6.00;;
38399;SDS011;24180;42.676;23.320;2023-04-30T10:41:45;5.40;;;4.90;;
38399;SDS011;24180;42.676;23.320;2023-04-30T10:44:13;7.53;;;6.83;;
38399;SDS011;24180;42.676;23.320;2023-04-30T10:46:39;7.97;;;7.23;;
38399;SDS011;24180;42.676;23.320;2023-04-30T10:49:05;6.60;;;6.10;;
38399;SDS011;24180;42.676;23.320;2023-04-30T10:51:47;6.63;;;6.13;;
38399;SDS011;24180;42.676;23.320;2023-04-30T10:54:20;6.60;;;6.10;;
38399;SDS011;24180;42.676;23.320;2023-04-30T10:56:49;6.87;;;6.27;;
38399;SDS011;24180;42.676;23.320;2023-04-30T10:59:16;6.17;;;5.60;;
38399;SDS011;24180;42.676;23.320;2023-04-30T11:01:53;8.27;;;5.80;;
38399;SDS011;24180;42.676;23.320;2023-04-30T11:04:20;6.40;;;5.70;;
38399;SDS011;24180;42.676;23.320;2023-04-30T11:06:53;5.53;;;5.18;;
38399;SDS011;24180;42.676;23.320;2023-04-30T11:09:23;6.10;;;5.50;;
38399;SDS011;24180;42.676;23.320;2023-04-30T11:12:02;5.13;;;4.72;;
38399;SDS011;24180;42.676;23.320;2023-04-30T11:14:30;5.38;;;4.97;;
38399;SDS011;24180;42.676;23.320;2023-04-30T11:16:58;5.28;;;4.78;;
38399;SDS011;24180;42.676;23.320;2023-04-30T11:19:24;6.13;;;5.72;;
38399;SDS011;24180;42.676;23.320;2023-04-30T11:25:31;4.67;;;4.27;;
38399;SDS011;24180;42.676;23.320;2023-04-30T11:27:25;4.97;;;4.57;;
38399;SDS011;24180;42.676;23.320;2023-04-30T11:29:51;6.90;;;6.50;;
38399;SDS011;24180;42.676;23.320;2023-04-30T11:32:19;5.53;;;5.10;;
38399;SDS011;24180;42.676;23.320;2023-04-30T11:34:46;6.15;;;5.57;;
38399;SDS011;24180;42.676;23.320;2023-04-30T11:37:17;6.07;;;5.57;;
38399;SDS011;24180;42.676;23.320;2023-04-30T11:39:44;6.68;;;6.22;;
38399;SDS011;24180;42.676;23.320;2023-04-30T11:42:15;5.82;;;5.32;;
38399;SDS011;24180;42.676;23.320;2023-04-30T11:44:43;5.43;;;5.00;;
38399;SDS011;24180;42.676;23.320;2023-04-30T11:47:09;5.00;;;4.63;;
38399;SDS011;24180;42.676;23.320;2023-04-30T11:49:36;5.75;;;5.38;;
38399;SDS011;24180;42.676;23.320;2023-04-30T11:52:02;4.78;;;4.47;;
38399;SDS011;24180;42.676;23.320;2023-04-30T11:54:30;4.72;;;4.43;;
38399;SDS011;24180;42.676;23.320;2023-04-30T11:57:00;10.52;;;4.65;;
38399;SDS011;24180;42.676;23.320;2023-04-30T11:59:28;8.65;;;5.10;;
38399;SDS011;24180;42.676;23.320;2023-04-30T12:01:54;5.75;;;5.03;;
38399;SDS011;24180;42.676;23.320;2023-04-30T12:04:20;4.78;;;4.45;;
38399;SDS011;24180;42.676;23.320;2023-04-30T12:06:46;6.55;;;6.00;;
38399;SDS011;24180;42.676;23.320;2023-04-30T12:09:12;4.78;;;4.47;;
38399;SDS011;24180;42.676;23.320;2023-04-30T12:11:37;5.63;;;5.00;;
38399;SDS011;24180;42.676;23.320;2023-04-30T12:14:03;4.38;;;4.07;;
38399;SDS011;24180;42.676;23.320;2023-04-30T12:16:46;5.70;;;5.30;;
38399;SDS011;24180;42.676;23.320;2023-04-30T12:19:14;6.78;;;6.30;;
38399;SDS011;24180;42.676;23.320;2023-04-30T12:21:41;4.90;;;4.50;;
38399;SDS011;24180;42.676;23.320;2023-04-30T12:24:11;6.90;;;6.30;;
38399;SDS011;24180;42.676;23.320;2023-04-30T12:26:38;5.03;;;4.72;;
38399;SDS011;24180;42.676;23.320;2023-04-30T12:29:05;6.82;;;4.30;;
38399;SDS011;24180;42.676;23.320;2023-04-30T12:31:37;4.93;;;4.63;;
38399;SDS011;24180;42.676;23.320;2023-04-30T12:34:08;4.80;;;4.50;;
38399;SDS011;24180;42.676;23.320;2023-04-30T12:36:38;5.43;;;4.93;;
38399;SDS011;24180;42.676;23.320;2023-04-30T12:41:42;7.50;;;6.97;;
38399;SDS011;24180;42.676;23.320;2023-04-30T12:44:12;8.87;;;5.20;;
38399;SDS011;24180;42.676;23.320;2023-04-30T12:46:48;5.97;;;5.40;;
38399;SDS011;24180;42.676;23.320;2023-04-30T12:49:25;5.43;;;4.90;;
38399;SDS011;24180;42.676;23.320;2023-04-30T12:51:55;5.47;;;5.10;;
38399;SDS011;24180;42.676;23.320;2023-04-30T12:54:31;5.20;;;4.80;;
38399;SDS011;24180;42.676;23.320;2023-04-30T12:57:00;5.23;;;4.83;;
38399;SDS011;24180;42.676;23.320;2023-04-30T12:59:29;4.90;;;4.60;;
38399;SDS011;24180;42.676;23.320;2023-04-30T13:02:04;5.10;;;4.70;;
38399;SDS011;24180;42.676;23.320;2023-04-30T13:04:34;5.43;;;5.03;;
38399;SDS011;24180;42.676;23.320;2023-04-30T13:07:00;5.40;;;5.00;;
38399;SDS011;24180;42.676;23.320;2023-04-30T13:09:27;6.47;;;6.17;;
38399;SDS011;24180;42.676;23.320;2023-04-30T13:11:52;7.77;;;7.27;;
38399;SDS011;24180;42.676;23.320;2023-04-30T13:14:18;6.53;;;6.03;;
38399;SDS011;24180;42.676;23.320;2023-04-30T13:16:43;6.40;;;5.97;;
38399;SDS011;24180;42.676;23.320;2023-04-30T13:19:09;6.10;;;5.70;;
38399;SDS011;24180;42.676;23.320;2023-04-30T13:21:35;5.63;;;5.13;;
38399;SDS011;24180;42.676;23.320;2023-04-30T13:24:01;5.40;;;4.90;;
38399;SDS011;24180;42.676;23.320;2023-04-30T13:26:26;4.57;;;4.27;;
38399;SDS011;24180;42.676;23.320;2023-04-30T13:28:52;5.23;;;4.83;;
38399;SDS011;24180;42.676;23.320;2023-04-30T13:31:18;4.80;;;4.40;;
38399;SDS011;24180;42.676;23.320;2023-04-30T13:33:44;4.70;;;4.40;;
38399;SDS011;24180;42.676;23.320;2023-04-30T13:36:09;8.40;;;7.60;;
38399;SDS011;24180;42.676;23.320;2023-04-30T13:38:35;5.03;;;4.63;;
38399;SDS011;24180;42.676;23.320;2023-04-30T13:41:03;4.87;;;4.57;;
38399;SDS011;24180;42.676;23.320;2023-04-30T13:43:29;5.40;;;5.00;;
38399;SDS011;24180;42.676;23.320;2023-04-30T13:45:55;5.40;;;4.77;;
38399;SDS011;24180;42.676;23.320;2023-04-30T13:48:22;4.20;;;3.97;;
38399;SDS011;24180;42.676;23.320;2023-04-30T13:50:47;5.07;;;4.77;;
38399;SDS011;24180;42.676;23.320;2023-04-30T13:53:13;5.27;;;4.87;;
38399;SDS011;24180;42.676;23.320;2023-04-30T13:55:39;6.37;;;5.77;;
38399;SDS011;24180;42.676;23.320;2023-04-30T13:58:04;5.67;;;5.27;;
38399;SDS011;24180;42.676;23.320;2023-04-30T14:00:30;4.70;;;4.33;;
38399;SDS011;24180;42.676;23.320;2023-04-30T14:02:55;4.77;;;4.30;;
38399;SDS011;24180;42.676;23.320;2023-04-30T14:05:20;5.70;;;5.20;;
38399;SDS011;24180;42.676;23.320;2023-04-30T14:07:46;6.40;;;5.80;;
38399;SDS011;24180;42.676;23.320;2023-04-30T14:10:11;4.80;;;4.40;;
38399;SDS011;24180;42.676;23.320;2023-04-30T14:12:37;5.00;;;4.60;;
38399;SDS011;24180;42.676;23.320;2023-04-30T14:15:03;4.77;;;4.40;;
38399;SDS011;24180;42.676;23.320;2023-04-30T14:17:29;4.90;;;4.50;;
38399;SDS011;24180;42.676;23.320;2023-04-30T14:19:55;5.97;;;5.57;;
38399;SDS011;24180;42.676;23.320;2023-04-30T14:22:21;5.97;;;5.60;;
38399;SDS011;24180;42.676;23.320;2023-04-30T14:24:48;6.53;;;6.03;;
38399;SDS011;24180;42.676;23.320;2023-04-30T14:27:14;5.97;;;5.57;;
38399;SDS011;24180;42.676;23.320;2023-04-30T14:29:39;4.83;;;4.43;;
38399;SDS011;24180;42.676;23.320;2023-04-30T14:32:05;4.70;;;4.30;;
38399;SDS011;24180;42.676;23.320;2023-04-30T14:34:31;5.97;;;5.30;;
38399;SDS011;24180;42.676;23.320;2023-04-30T14:36:57;5.03;;;4.70;;
38399;SDS011;24180;42.676;23.320;2023-04-30T14:39:23;6.17;;;5.67;;
38399;SDS011;24180;42.676;23.320;2023-04-30T14:41:50;8.03;;;7.23;;
38399;SDS011;24180;42.676;23.320;2023-04-30T14:44:15;6.53;;;5.97;;